Time;durP1;ratioP1;P1;durP2;ratioP2;P2;SDS_P1;SDS_P2;PMS_P1;PMS_P2;Temp;Humidity;BMP_temperature;BMP_pressure;BME280_temperature;BME280_humidity;BME280_pressure;Samples;Min_cycle;Max_cycle;Signal;HPM_P1;HPM_P2
2023/02/16 00:01:28;;;;;;;;;;;;;;;;;;5007143;28;4646;-59
2023/02/16 00:03:53;;;;;;;;;;;;;;;;;;4998618;28;5129;-63
2023/02/16 00:06:19;;;;;;;;;;;;;;;;;;4999073;28;5019;-62
2023/02/16 00:08:48;;;;;;;;;;;;;;;;;;5008953;28;1167;-61
2023/02/16 00:14:11;;;;;;;;;;;;;;;;;;4997716;28;4767;-61
2023/02/16 00:16:36;;;;;;;;;;;;;;;;;;4993910;28;5042;-56
2023/02/16 00:19:09;;;;;;;;;;;;;;;;;;5000504;28;4972;-60
2023/02/16 00:21:34;;;;;;;;;;;;;;;;;;5001322;28;4623;-61
2023/02/16 00:23:59;;;;;;;;;;;;;;;;;;5006300;28;5086;-60
2023/02/16 00:26:25;;;;;;;;;;;;;;;;;;5003633;28;1112;-62
2023/02/16 00:28:54;;;;;;;;;;;;;;;;;;5004409;28;5169;-62
2023/02/16 00:31:20;;;;;;;;;;;;;;;;;;4988158;28;5022;-62
2023/02/16 00:33:45;;;;;;;;;;;;;;;;;;4997614;28;4922;-60
2023/02/16 00:36:10;;;;;;;;;;;;;;;;;;5000791;28;5077;-62
2023/02/16 00:38:36;;;;;;;;;;;;;;;;;;5000287;28;1922;-62
2023/02/16 00:41:01;;;;;;;;;;;;;;;;;;5000314;28;5007;-58
2023/02/16 00:43:27;;;;;;;;;;;;;;;;;;5002668;28;5232;-60
2023/02/16 00:45:52;;;;;;;;;;;;;;;;;;5006132;28;4645;-61
2023/02/16 00:48:17;;;;;;;;;;;;;;;;;;4998509;28;4723;-59
2023/02/16 00:50:43;;;;;;;;;;;;;;;;;;5000751;28;3252;-61
2023/02/16 00:53:09;;;;;;;;;;;;;;;;;;5001115;28;5104;-62
2023/02/16 00:55:34;;;;;;;;;;;;;;;;;;5009065;28;4868;-59
2023/02/16 00:58:29;;;;;;;;;;;;;;;;;;5004506;28;4939;-60
2023/02/16 01:00:56;;;;;;;;;;;;;;;;;;4991284;28;5057;-63
2023/02/16 01:03:24;;;;;;;;;;;;;;;;;;5005664;28;4980;-61
2023/02/16 01:11:06;;;;;;;;;;;;;;;;;;5004168;28;5151;-63
2023/02/16 01:11:19;;;;;;;;;;;;;;;;;;5003791;28;4624;-62
2023/02/16 01:13:45;;;;;;;;;;;;;;;;;;5009818;28;4645;-62
2023/02/16 01:16:11;;;;;;;;;;;;;;;;;;4986639;28;5170;-63
2023/02/16 01:18:36;;;;;;;;;;;;;;;;;;4998276;28;5066;-63
2023/02/16 01:21:02;;;;;;;;;;;;;;;;;;5007513;28;5510;-62
2023/02/16 01:23:28;;;;;;;;;;;;;;;;;;5009902;28;1831;-61
2023/02/16 01:25:53;;;;;;;;;;;;;;;;;;5008038;28;5135;-57
2023/02/16 01:28:20;;;;;;;;;;;;;;;;;;4996349;28;5466;-61
2023/02/16 01:30:45;;;;;;;;;;;;;;;;;;5009357;28;5550;-63
2023/02/16 01:33:10;;;;;;;;;;;;;;;;;;5012393;28;5106;-63
2023/02/16 01:35:36;;;;;;;;;;;;;;;;;;5011866;28;1090;-63
2023/02/16 01:38:01;;;;;;;;;;;;;;;;;;5009504;28;4631;-62
2023/02/16 01:40:35;;;;;;;;;;;;;;;;;;5010906;28;4982;-63
2023/02/16 01:43:01;;;;;;;;;;;;;;;;;;5007478;28;5070;-61
2023/02/16 01:45:33;;;;;;;;;;;;;;;;;;4998930;28;5032;-62
2023/02/16 01:48:05;;;;;;;;;;;;;;;;;;5010827;28;5008;-59
2023/02/16 01:50:40;;;;;;;;;;;;;;;;;;5002027;28;1211;-62
2023/02/16 01:53:11;;;;;;;;;;;;;;;;;;5010524;28;4511;-63
2023/02/16 01:55:36;;;;;;;;;;;;;;;;;;5006891;28;4661;-62
2023/02/16 01:58:16;;;;;;;;;;;;;;;;;;5002365;28;5254;-62
2023/02/16 02:00:47;;;;;;;;;;;;;;;;;;5001936;28;4965;-63
2023/02/16 02:05:57;;;;;;;;;;;;;;;;;;5012880;28;5132;-62
2023/02/16 02:08:34;;;;;;;;;;;;;;;;;;5009395;28;1187;-63
2023/02/16 02:11:11;;;;;;;;;;;;;;;;;;4985934;28;5073;-61
2023/02/16 02:13:36;;;;;;;;;;;;;;;;;;4996367;28;5125;-62
2023/02/16 02:16:02;;;;;;;;;;;;;;;;;;5002792;28;4437;-61
2023/02/16 02:18:27;;;;;;;;;;;;;;;;;;4982108;28;5091;-59
2023/02/16 02:24:12;;;;;;;;;;;;;;;;;;4934279;29;6085;-59
2023/02/16 02:26:46;;;;;;;;;;;;;;;;;;4996594;28;2925;-60
2023/02/16 02:29:16;;;;;;;;;;;;;;;;;;5007138;28;4619;-63
2023/02/16 02:31:53;;;;;;;;;;;;;;;;;;5005653;28;5042;-62
2023/02/16 02:34:22;;;;;;;;;;;;;;;;;;5011925;28;5482;-61
2023/02/16 02:36:55;;;;;;;;;;;;;;;;;;5002990;28;4893;-62
2023/02/16 02:39:20;;;;;;;;;;;;;;;;;;4997596;28;4515;-59
2023/02/16 02:42:04;;;;;;;;;;;;;;;;;;5005520;28;2593;-60
2023/02/16 02:44:29;;;;;;;;;;;;;;;;;;5008358;28;5067;-55
2023/02/16 02:46:54;;;;;;;;;;;;;;;;;;5013972;28;4562;-61
2023/02/16 02:49:20;;;;;;;;;;;;;;;;;;5009033;28;4441;-60
2023/02/16 02:51:46;;;;;;;;;;;;;;;;;;5000583;28;5129;-60
2023/02/16 03:02:42;;;;;;;;;;;;;;;;;;5008045;28;3297;-62
2023/02/16 03:05:07;;;;;;;;;;;;;;;;;;4987708;28;5461;-62
2023/02/16 03:07:48;;;;;;;;;;;;;;;;;;5002923;28;4973;-60
2023/02/16 03:13:05;;;;;;;;;;;;;;;;;;5002609;28;5096;-62
2023/02/16 03:15:30;;;;;;;;;;;;;;;;;;4999559;28;4572;-58
2023/02/16 03:31:37;;;;;;;;;;;;;;;;;;4999423;28;5090;-63
2023/02/16 03:34:02;;;;;;;;;;;;;;;;;;5003222;28;5645;-61
2023/02/16 03:36:28;;;;;;;;;;;;;;;;;;4998672;28;5154;-60
2023/02/16 03:38:54;;;;;;;;;;;;;;;;;;5005772;28;4509;-62
2023/02/16 03:41:19;;;;;;;;;;;;;;;;;;5007930;28;1292;-56
2023/02/16 03:43:44;;;;;;;;;;;;;;;;;;5004143;28;5181;-62
2023/02/16 03:46:09;;;;;;;;;;;;;;;;;;5001797;28;4473;-63
2023/02/16 03:48:35;;;;;;;;;;;;;;;;;;4999649;28;5196;-63
2023/02/16 03:51:00;;;;;;;;;;;;;;;;;;5010169;28;5146;-63
2023/02/16 03:53:25;;;;;;;;;;;;;;;;;;5005216;28;3273;-62
2023/02/16 03:55:50;;;;;;;;;;;;;;;;;;5005654;28;5014;-59
2023/02/16 03:58:20;;;;;;;;;;;;;;;;;;4997894;28;4697;-61
2023/02/16 04:00:45;;;;;;;;;;;;;;;;;;5009275;28;4562;-62
2023/02/16 04:03:10;;;;;;;;;;;;;;;;;;5004291;28;5039;-62
2023/02/16 04:05:36;;;;;;;;;;;;;;;;;;5004685;28;1160;-58
2023/02/16 04:08:01;;;;;;;;;;;;;;;;;;5007222;28;5255;-61
2023/02/16 04:10:26;;;;;;;;;;;;;;;;;;5007797;28;4466;-62
2023/02/16 04:12:51;;;;;;;;;;;;;;;;;;5002100;28;5060;-62
2023/02/16 04:15:18;;;;;;;;;;;;;;;;;;5008658;28;5958;-62
2023/02/16 04:17:43;;;;;;;;;;;;;;;;;;5001486;28;1979;-57
2023/02/16 04:20:09;;;;;;;;;;;;;;;;;;4977448;28;5095;-61
2023/02/16 04:22:34;;;;;;;;;;;;;;;;;;5005491;28;4567;-59
2023/02/16 04:25:00;;;;;;;;;;;;;;;;;;5007127;28;4888;-59
2023/02/16 04:27:25;;;;;;;;;;;;;;;;;;5003571;28;4901;-63
2023/02/16 04:29:50;;;;;;;;;;;;;;;;;;5006253;28;5672;-62
2023/02/16 04:32:16;;;;;;;;;;;;;;;;;;5003149;28;2121;-63
2023/02/16 04:34:41;;;;;;;;;;;;;;;;;;5002319;28;4913;-62
2023/02/16 04:37:06;;;;;;;;;;;;;;;;;;4996300;28;4593;-63
2023/02/16 04:39:31;;;;;;;;;;;;;;;;;;5007137;28;5082;-55
2023/02/16 04:41:57;;;;;;;;;;;;;;;;;;5010390;28;5222;-62
2023/02/16 04:44:22;;;;;;;;;;;;;;;;;;5006597;28;3365;-62
2023/02/16 04:46:47;;;;;;;;;;;;;;;;;;5012669;28;5170;-61
2023/02/16 04:49:12;;;;;;;;;;;;;;;;;;5003819;28;5423;-59
2023/02/16 04:51:38;;;;;;;;;;;;;;;;;;4999931;28;5055;-59
2023/02/16 04:54:04;;;;;;;;;;;;;;;;;;4993249;28;5058;-56
2023/02/16 04:56:29;;;;;;;;;;;;;;;;;;5012849;28;1307;-60
2023/02/16 04:58:55;;;;;;;;;;;;;;;;;;5000265;28;5110;-62
2023/02/16 05:01:20;;;;;;;;;;;;;;;;;;4998508;28;4884;-62
2023/02/16 05:03:46;;;;;;;;;;;;;;;;;;5006641;28;4604;-63
2023/02/16 05:06:11;;;;;;;;;;;;;;;;;;5010804;28;6031;-62
2023/02/16 05:08:36;;;;;;;;;;;;;;;;;;5009315;28;1297;-62
2023/02/16 05:16:37;;;;;;;;;;;;;;;;;;4993789;28;4684;-62
2023/02/16 05:19:02;;;;;;;;;;;;;;;;;;5008904;28;5056;-62
2023/02/16 05:21:31;;;;;;;;;;;;;;;;;;5011234;28;5155;-62
2023/02/16 05:24:03;;;;;;;;;;;;;;;;;;4999986;28;4913;-63
2023/02/16 05:26:28;;;;;;;;;;;;;;;;;;5011949;28;1129;-54
2023/02/16 05:28:54;;;;;;;;;;;;;;;;;;5005923;28;4535;-59
2023/02/16 05:31:20;;;;;;;;;;;;;;;;;;5005436;28;5204;-59
2023/02/16 05:33:45;;;;;;;;;;;;;;;;;;5006186;28;5026;-61
2023/02/16 05:36:10;;;;;;;;;;;;;;;;;;5006833;28;5280;-61
2023/02/16 05:38:36;;;;;;;;;;;;;;;;;;5006146;28;1906;-59
2023/02/16 05:41:01;;;;;;;;;;;;;;;;;;4990836;28;5347;-61
2023/02/16 05:43:26;;;;;;;;;;;;;;;;;;5001572;28;5378;-62
2023/02/16 05:45:51;;;;;;;;;;;;;;;;;;5013514;28;5056;-63
2023/02/16 05:48:17;;;;;;;;;;;;;;;;;;5009984;28;5135;-64
2023/02/16 05:50:42;;;;;;;;;;;;;;;;;;4998586;28;3296;-64
2023/02/16 05:53:07;;;;;;;;;;;;;;;;;;5006978;28;4611;-63
2023/02/16 05:55:32;;;;;;;;;;;;;;;;;;4999441;28;4826;-62
2023/02/16 05:57:58;;;;;;;;;;;;;;;;;;4999613;28;4513;-63
2023/02/16 06:00:23;;;;;;;;;;;;;;;;;;4991980;28;5290;-62
2023/02/16 06:02:48;;;;;;;;;;;;;;;;;;5002824;28;5111;-59
2023/02/16 06:05:14;;;;;;;;;;;;;;;;;;4992229;28;3446;-61
2023/02/16 06:07:39;;;;;;;;;;;;;;;;;;5009856;28;4980;-62
2023/02/16 06:10:04;;;;;;;;;;;;;;;;;;4998906;28;4702;-61
2023/02/16 06:12:31;;;;;;;;;;;;;;;;;;5002204;28;6067;-51
2023/02/16 06:14:57;;;;;;;;;;;;;;;;;;5005239;28;5176;-59
2023/02/16 06:17:22;;;;;;;;;;;;;;;;;;5002409;28;3285;-62
2023/02/16 06:19:47;;;;;;;;;;;;;;;;;;5008386;28;4958;-62
2023/02/16 06:22:12;;;;;;;;;;;;;;;;;;5007327;28;5218;-63
2023/02/16 06:24:38;;;;;;;;;;;;;;;;;;5008283;28;5055;-62
2023/02/16 06:27:03;;;;;;;;;;;;;;;;;;5001732;28;5142;-60
2023/02/16 06:29:28;;;;;;;;;;;;;;;;;;5010308;28;3305;-60
2023/02/16 06:31:53;;;;;;;;;;;;;;;;;;5003046;28;4988;-60
2023/02/16 06:34:19;;;;;;;;;;;;;;;;;;5003298;28;5325;-57
2023/02/16 06:36:44;;;;;;;;;;;;;;;;;;5001418;28;5004;-61
2023/02/16 06:39:09;;;;;;;;;;;;;;;;;;5000019;28;5141;-59
2023/02/16 06:41:38;;;;;;;;;;;;;;;;;;5011312;28;3014;-71
2023/02/16 06:44:04;;;;;;;;;;;;;;;;;;5011914;28;5182;-68
2023/02/16 06:46:30;;;;;;;;;;;;;;;;;;5016330;28;5221;-68
2023/02/16 06:48:55;;;;;;;;;;;;;;;;;;5005148;28;4501;-66
2023/02/16 06:51:20;;;;;;;;;;;;;;;;;;5009840;28;4767;-68
2023/02/16 06:53:46;;;;;;;;;;;;;;;;;;4986563;28;3239;-68
2023/02/16 06:56:11;;;;;;;;;;;;;;;;;;5009013;28;4790;-67
2023/02/16 06:58:36;;;;;;;;;;;;;;;;;;5006849;28;4741;-68
2023/02/16 07:01:03;;;;;;;;;;;;;;;;;;5008927;28;5300;-69
2023/02/16 07:03:28;;;;;;;;;;;;;;;;;;5008571;28;4521;-68
2023/02/16 07:05:53;;;;;;;;;;;;;;;;;;5004257;28;4584;-69
2023/02/16 07:08:19;;;;;;;;;;;;;;;;;;5000870;28;1282;-69
2023/02/16 07:10:44;;;;;;;;;;;;;;;;;;5008950;28;4859;-68
2023/02/16 07:13:09;;;;;;;;;;;;;;;;;;4991160;28;5097;-68
2023/02/16 07:15:35;;;;;;;;;;;;;;;;;;5009198;28;4508;-69
2023/02/16 07:18:00;;;;;;;;;;;;;;;;;;5008602;28;4462;-66
2023/02/16 07:20:26;;;;;;;;;;;;;;;;;;4999667;28;1724;-67
2023/02/16 07:22:51;;;;;;;;;;;;;;;;;;4998924;28;4763;-68
2023/02/16 07:25:17;;;;;;;;;;;;;;;;;;5009248;28;4517;-68
2023/02/16 07:27:42;;;;;;;;;;;;;;;;;;5008966;28;4452;-68
2023/02/16 07:30:07;;;;;;;;;;;;;;;;;;5005301;28;4978;-68
2023/02/16 07:32:33;;;;;;;;;;;;;;;;;;5009328;28;1121;-67
2023/02/16 07:34:58;;;;;;;;;;;;;;;;;;5002650;28;4535;-68
2023/02/16 07:37:23;;;;;;;;;;;;;;;;;;5005580;28;5002;-68
2023/02/16 07:39:49;;;;;;;;;;;;;;;;;;5009074;28;4916;-67
2023/02/16 07:42:14;;;;;;;;;;;;;;;;;;5008870;28;4855;-69
2023/02/16 07:44:39;;;;;;;;;;;;;;;;;;5010790;28;1198;-68
2023/02/16 07:47:05;;;;;;;;;;;;;;;;;;5011850;28;4965;-67
2023/02/16 07:49:30;;;;;;;;;;;;;;;;;;5002046;28;5040;-68
2023/02/16 07:51:55;;;;;;;;;;;;;;;;;;5002840;28;4455;-68
2023/02/16 07:54:20;;;;;;;;;;;;;;;;;;5008802;28;4489;-68
2023/02/16 07:56:46;;;;;;;;;;;;;;;;;;5009793;28;1615;-69
2023/02/16 07:59:11;;;;;;;;;;;;;;;;;;5012827;28;4958;-69
2023/02/16 08:01:36;;;;;;;;;;;;;;;;;;5007078;28;4629;-67
2023/02/16 08:04:02;;;;;;;;;;;;;;;;;;5006985;28;5097;-68
2023/02/16 08:06:27;;;;;;;;;;;;;;;;;;5000282;28;5172;-61
2023/02/16 08:08:52;;;;;;;;;;;;;;;;;;5005965;28;5433;-58
2023/02/16 08:11:21;;;;;;;;;;;;;;;;;;4999248;28;3317;-59
2023/02/16 08:13:46;;;;;;;;;;;;;;;;;;5002909;28;5053;-60
2023/02/16 08:16:12;;;;;;;;;;;;;;;;;;5008829;28;5118;-60
2023/02/16 08:18:39;;;;;;;;;;;;;;;;;;5004911;28;4504;-60
2023/02/16 08:21:15;;;;;;;;;;;;;;;;;;5013975;28;5077;-60
2023/02/16 08:23:46;;;;;;;;;;;;;;;;;;5011984;28;1151;-61
2023/02/16 08:26:11;;;;;;;;;;;;;;;;;;5011871;28;4399;-63
2023/02/16 08:28:36;;;;;;;;;;;;;;;;;;5012617;28;4665;-57
2023/02/16 08:31:05;;;;;;;;;;;;;;;;;;5010420;28;4473;-58
2023/02/16 08:33:31;;;;;;;;;;;;;;;;;;5008668;28;5070;-61
2023/02/16 08:35:57;;;;;;;;;;;;;;;;;;4992736;28;5016;-60
2023/02/16 08:38:23;;;;;;;;;;;;;;;;;;5009853;28;1973;-61
2023/02/16 08:40:48;;;;;;;;;;;;;;;;;;5010535;28;4975;-61
2023/02/16 08:43:14;;;;;;;;;;;;;;;;;;4992553;28;4554;-59
2023/02/16 08:45:48;;;;;;;;;;;;;;;;;;5014475;28;5038;-58
2023/02/16 08:48:13;;;;;;;;;;;;;;;;;;5006978;28;4925;-60
2023/02/16 08:50:45;;;;;;;;;;;;;;;;;;5003320;28;1215;-60
2023/02/16 08:53:11;;;;;;;;;;;;;;;;;;5006199;28;4383;-61
2023/02/16 08:55:37;;;;;;;;;;;;;;;;;;4999592;28;4583;-62
2023/02/16 08:58:02;;;;;;;;;;;;;;;;;;4992887;28;5385;-59
2023/02/16 09:00:33;;;;;;;;;;;;;;;;;;4997227;28;5110;-60
2023/02/16 09:02:59;;;;;;;;;;;;;;;;;;5006285;28;5132;-61
2023/02/16 09:05:24;;;;;;;;;;;;;;;;;;4998632;28;3232;-60
2023/02/16 09:07:51;;;;;;;;;;;;;;;;;;5008862;28;4983;-61
2023/02/16 09:10:17;;;;;;;;;;;;;;;;;;5008025;28;5112;-61
2023/02/16 09:12:42;;;;;;;;;;;;;;;;;;5002385;28;5046;-62
2023/02/16 09:15:07;;;;;;;;;;;;;;;;;;5001908;28;4580;-62
2023/02/16 09:17:33;;;;;;;;;;;;;;;;;;5008853;28;3288;-60
2023/02/16 09:19:58;;;;;;;;;;;;;;;;;;4995740;28;5181;-60
2023/02/16 09:22:23;;;;;;;;;;;;;;;;;;5006467;28;4507;-61
2023/02/16 09:24:49;;;;;;;;;;;;;;;;;;5003910;28;5195;-61
2023/02/16 09:27:14;;;;;;;;;;;;;;;;;;5002241;28;5026;-58
2023/02/16 09:29:39;;;;;;;;;;;;;;;;;;5003436;28;1081;-61
2023/02/16 09:32:05;;;;;;;;;;;;;;;;;;4990789;28;4468;-62
2023/02/16 09:34:30;;;;;;;;;;;;;;;;;;5009928;28;5138;-61
2023/02/16 09:36:56;;;;;;;;;;;;;;;;;;5002887;28;5100;-58
2023/02/16 09:39:22;;;;;;;;;;;;;;;;;;5004018;28;4529;-61
2023/02/16 09:41:53;;;;;;;;;;;;;;;;;;5001886;28;4547;-56
2023/02/16 09:44:32;;;;;;;;;;;;;;;;;;5005049;28;3268;-61
2023/02/16 09:46:57;;;;;;;;;;;;;;;;;;5009651;28;4470;-61
2023/02/16 09:49:25;;;;;;;;;;;;;;;;;;4990711;28;4719;-62
2023/02/16 09:52:12;;;;;;;;;;;;;;;;;;4995555;28;4876;-61
2023/02/16 09:54:41;;;;;;;;;;;;;;;;;;5000625;28;5235;-61
2023/02/16 09:57:26;;;;;;;;;;;;;;;;;;4997038;28;5312;-56
2023/02/16 09:59:55;;;;;;;;;;;;;;;;;;5001650;28;4900;-58
2023/02/16 10:02:29;;;;;;;;;;;;;;;;;;5006936;28;2847;-62
2023/02/16 10:05:01;;;;;;;;;;;;;;;;;;5005172;28;4984;-62
2023/02/16 10:07:31;;;;;;;;;;;;;;;;;;5005369;28;4512;-60
2023/02/16 10:09:56;;;;;;;;;;;;;;;;;;5004186;28;4503;-57
2023/02/16 10:12:23;;;;;;;;;;;;;;;;;;4983241;28;5079;-59
2023/02/16 10:14:50;;;;;;;;;;;;;;;;;;5002255;28;5163;-60
2023/02/16 10:17:27;;;;;;;;;;;;;;;;;;5004511;28;1982;-61
2023/02/16 10:19:53;;;;;;;;;;;;;;;;;;5000560;28;4661;-58
2023/02/16 10:22:30;;;;;;;;;;;;;;;;;;5010334;28;5082;-62
2023/02/16 10:24:59;;;;;;;;;;;;;;;;;;5008209;28;4893;-60
2023/02/16 10:27:26;;;;;;;;;;;;;;;;;;4984059;28;4990;-60
2023/02/16 10:29:51;;;;;;;;;;;;;;;;;;5007179;28;4968;-62
2023/02/16 10:32:28;;;;;;;;;;;;;;;;;;4999294;28;1098;-59
2023/02/16 10:35:10;;;;;;;;;;;;;;;;;;4996079;28;5274;-62
2023/02/16 10:37:56;;;;;;;;;;;;;;;;;;4999629;28;5204;-58
2023/02/16 10:40:40;;;;;;;;;;;;;;;;;;5001929;28;5049;-58
2023/02/16 10:43:31;;;;;;;;;;;;;;;;;;5000953;28;4452;-60
2023/02/16 10:45:59;;;;;;;;;;;;;;;;;;5002963;28;5099;-60
2023/02/16 10:48:25;;;;;;;;;;;;;;;;;;5001571;28;4556;-60
2023/02/16 10:50:57;;;;;;;;;;;;;;;;;;5001952;28;5034;-58
2023/02/16 10:53:28;;;;;;;;;;;;;;;;;;4996511;28;1309;-61
2023/02/16 10:55:54;;;;;;;;;;;;;;;;;;5008413;28;4448;-58
2023/02/16 10:58:21;;;;;;;;;;;;;;;;;;4999451;28;4742;-58
2023/02/16 11:00:47;;;;;;;;;;;;;;;;;;5008168;28;4980;-61
2023/02/16 11:03:14;;;;;;;;;;;;;;;;;;5003464;28;5079;-59
2023/02/16 11:05:40;;;;;;;;;;;;;;;;;;4998571;28;1983;-61
2023/02/16 11:08:07;;;;;;;;;;;;;;;;;;5001669;28;5376;-61
2023/02/16 11:10:51;;;;;;;;;;;;;;;;;;4999115;28;5073;-61
2023/02/16 11:13:30;;;;;;;;;;;;;;;;;;4998830;28;4473;-61
2023/02/16 11:15:57;;;;;;;;;;;;;;;;;;5006152;28;5084;-61
2023/02/16 11:18:22;;;;;;;;;;;;;;;;;;5003081;28;5130;-60
2023/02/16 11:20:47;;;;;;;;;;;;;;;;;;5001510;28;5046;-60
2023/02/16 11:23:12;;;;;;;;;;;;;;;;;;5001324;28;3398;-60
2023/02/16 11:25:38;;;;;;;;;;;;;;;;;;5009409;28;4946;-59
2023/02/16 11:28:07;;;;;;;;;;;;;;;;;;5007095;28;5172;-50
2023/02/16 11:30:36;;;;;;;;;;;;;;;;;;5000249;28;4693;-59
2023/02/16 11:33:01;;;;;;;;;;;;;;;;;;4989059;28;5368;-59
2023/02/16 11:35:28;;;;;;;;;;;;;;;;;;5003146;28;3665;-60
2023/02/16 11:37:54;;;;;;;;;;;;;;;;;;4989718;28;4811;-56
2023/02/16 11:40:23;;;;;;;;;;;;;;;;;;5003616;28;4952;-58
2023/02/16 11:42:52;;;;;;;;;;;;;;;;;;5005796;28;4506;-56
2023/02/16 11:45:28;;;;;;;;;;;;;;;;;;4990916;28;5011;-59
2023/02/16 11:47:57;;;;;;;;;;;;;;;;;;4982586;28;4973;-59
2023/02/16 11:50:24;;;;;;;;;;;;;;;;;;4996354;28;1677;-61
2023/02/16 11:53:13;;;;;;;;;;;;;;;;;;5002151;28;4993;-60
2023/02/16 11:55:45;;;;;;;;;;;;;;;;;;4995151;28;5142;-60
2023/02/16 11:58:21;;;;;;;;;;;;;;;;;;5005817;28;5565;-60
2023/02/16 12:01:05;;;;;;;;;;;;;;;;;;4989881;28;5173;-62
2023/02/16 12:03:37;;;;;;;;;;;;;;;;;;5002723;28;5289;-60
2023/02/16 12:06:21;;;;;;;;;;;;;;;;;;4998509;28;4997;-62
2023/02/16 12:08:53;;;;;;;;;;;;;;;;;;5006046;28;4496;-52
2023/02/16 12:11:37;;;;;;;;;;;;;;;;;;4972088;28;1158;-60
2023/02/16 12:14:05;;;;;;;;;;;;;;;;;;4992736;28;4657;-60
2023/02/16 12:16:59;;;;;;;;;;;;;;;;;;5002999;28;5091;-57
2023/02/16 12:19:31;;;;;;;;;;;;;;;;;;4974703;28;5009;-57
2023/02/16 12:22:15;;;;;;;;;;;;;;;;;;5008183;28;5280;-61
2023/02/16 12:24:46;;;;;;;;;;;;;;;;;;5005831;28;4673;-60
2023/02/16 12:27:24;;;;;;;;;;;;;;;;;;5007189;28;4644;-59
2023/02/16 12:30:08;;;;;;;;;;;;;;;;;;5000913;28;4591;-61
2023/02/16 12:32:52;;;;;;;;;;;;;;;;;;4993437;28;1413;-59
2023/02/16 12:35:33;;;;;;;;;;;;;;;;;;4998290;28;4685;-59
2023/02/16 12:38:02;;;;;;;;;;;;;;;;;;5000946;28;5140;-61
2023/02/16 12:40:46;;;;;;;;;;;;;;;;;;5000873;28;5000;-66
2023/02/16 12:43:26;;;;;;;;;;;;;;;;;;4998756;28;5116;-64
2023/02/16 12:45:53;;;;;;;;;;;;;;;;;;4997265;28;4516;-63
2023/02/16 12:48:27;;;;;;;;;;;;;;;;;;4995243;28;5335;-62
2023/02/16 12:50:53;;;;;;;;;;;;;;;;;;4979392;28;4674;-64
2023/02/16 12:53:21;;;;;;;;;;;;;;;;;;4987633;28;2404;-62
2023/02/16 12:55:49;;;;;;;;;;;;;;;;;;4988361;28;4441;-63
2023/02/16 12:58:15;;;;;;;;;;;;;;;;;;4978905;28;4983;-67
2023/02/16 13:00:46;;;;;;;;;;;;;;;;;;4985705;28;5009;-65
2023/02/16 13:03:24;;;;;;;;;;;;;;;;;;4990562;28;4876;-66
2023/02/16 13:06:10;;;;;;;;;;;;;;;;;;4981387;28;5132;-64
2023/02/16 13:08:47;;;;;;;;;;;;;;;;;;4979251;28;3286;-65
2023/02/16 13:11:33;;;;;;;;;;;;;;;;;;5003982;28;4803;-66
2023/02/16 13:13:59;;;;;;;;;;;;;;;;;;4977716;28;5122;-67
2023/02/16 13:16:26;;;;;;;;;;;;;;;;;;4987540;28;4480;-60
2023/02/16 13:18:52;;;;;;;;;;;;;;;;;;5002141;28;5210;-63
2023/02/16 13:21:20;;;;;;;;;;;;;;;;;;4990634;28;5145;-65
2023/02/16 13:23:54;;;;;;;;;;;;;;;;;;4988324;28;1155;-67
2023/02/16 13:26:22;;;;;;;;;;;;;;;;;;4980955;28;5011;-66
2023/02/16 13:28:57;;;;;;;;;;;;;;;;;;4991208;28;4802;-65
2023/02/16 13:31:39;;;;;;;;;;;;;;;;;;4985299;28;5017;-65
2023/02/16 13:34:04;;;;;;;;;;;;;;;;;;4994524;28;5050;-64
2023/02/16 13:36:32;;;;;;;;;;;;;;;;;;4980294;28;4884;-54
2023/02/16 13:39:24;;;;;;;;;;;;;;;;;;4982074;28;5548;-63
2023/02/16 13:41:59;;;;;;;;;;;;;;;;;;4959950;28;5077;-62
2023/02/16 13:44:25;;;;;;;;;;;;;;;;;;4994543;28;1240;-64
2023/02/16 13:46:51;;;;;;;;;;;;;;;;;;4989718;28;5024;-64
2023/02/16 13:49:25;;;;;;;;;;;;;;;;;;4992788;28;5175;-66
2023/02/16 13:51:51;;;;;;;;;;;;;;;;;;4987953;28;5072;-61
2023/02/16 13:54:27;;;;;;;;;;;;;;;;;;4992826;28;4991;-62
2023/02/16 13:56:52;;;;;;;;;;;;;;;;;;4977892;28;4722;-57
2023/02/16 13:59:18;;;;;;;;;;;;;;;;;;4983986;28;4574;-58
2023/02/16 14:01:44;;;;;;;;;;;;;;;;;;4984658;28;4462;-60
2023/02/16 14:04:10;;;;;;;;;;;;;;;;;;4980829;28;5162;-61
2023/02/16 14:06:36;;;;;;;;;;;;;;;;;;4988697;28;5115;-64
2023/02/16 14:09:11;;;;;;;;;;;;;;;;;;4984025;28;5609;-53
2023/02/16 14:11:51;;;;;;;;;;;;;;;;;;4982572;28;1405;-57
2023/02/16 14:14:26;;;;;;;;;;;;;;;;;;4985971;28;5090;-55
2023/02/16 14:16:53;;;;;;;;;;;;;;;;;;4989938;28;4991;-57
2023/02/16 14:19:20;;;;;;;;;;;;;;;;;;4982208;28;4472;-58
2023/02/16 14:21:46;;;;;;;;;;;;;;;;;;4987665;28;5081;-58
2023/02/16 14:24:12;;;;;;;;;;;;;;;;;;4987984;28;5048;-56
2023/02/16 14:27:00;;;;;;;;;;;;;;;;;;5002895;28;1494;-57
2023/02/16 14:29:26;;;;;;;;;;;;;;;;;;4984957;28;5062;-57
2023/02/16 14:31:58;;;;;;;;;;;;;;;;;;4986407;28;4576;-57
2023/02/16 14:34:27;;;;;;;;;;;;;;;;;;4974243;28;4973;-57
2023/02/16 14:37:22;;;;;;;;;;;;;;;;;;4994775;28;5040;-57
2023/02/16 14:39:48;;;;;;;;;;;;;;;;;;5004920;28;4516;-57
2023/02/16 14:42:14;;;;;;;;;;;;;;;;;;4990996;28;4962;-57
2023/02/16 14:44:49;;;;;;;;;;;;;;;;;;4985070;28;1126;-58
2023/02/16 14:47:40;;;;;;;;;;;;;;;;;;4985422;28;5078;-57
2023/02/16 14:50:35;;;;;;;;;;;;;;;;;;4982915;28;5009;-57
2023/02/16 14:53:07;;;;;;;;;;;;;;;;;;4955727;28;4736;-57
2023/02/16 14:55:52;;;;;;;;;;;;;;;;;;4984230;28;4612;-57
2023/02/16 14:58:22;;;;;;;;;;;;;;;;;;4991187;28;5231;-57
2023/02/16 15:00:50;;;;;;;;;;;;;;;;;;5006960;28;5235;-57
2023/02/16 15:03:17;;;;;;;;;;;;;;;;;;5000733;28;4883;-57
2023/02/16 15:05:42;;;;;;;;;;;;;;;;;;5000537;28;1337;-57
2023/02/16 15:08:15;;;;;;;;;;;;;;;;;;4996855;28;4630;-57
2023/02/16 15:10:45;;;;;;;;;;;;;;;;;;5010006;28;5006;-58
2023/02/16 15:13:20;;;;;;;;;;;;;;;;;;5007525;28;5085;-57
2023/02/16 15:15:47;;;;;;;;;;;;;;;;;;5003917;28;5082;-57
2023/02/16 15:18:20;;;;;;;;;;;;;;;;;;5004218;28;5494;-57
2023/02/16 15:20:47;;;;;;;;;;;;;;;;;;5003242;28;2526;-58
2023/02/16 15:23:22;;;;;;;;;;;;;;;;;;4987558;28;5130;-58
2023/02/16 15:26:13;;;;;;;;;;;;;;;;;;5002343;28;4981;-58
2023/02/16 15:28:40;;;;;;;;;;;;;;;;;;5002027;28;4963;-59
2023/02/16 15:31:06;;;;;;;;;;;;;;;;;;4995407;28;5218;-59
2023/02/16 15:33:33;;;;;;;;;;;;;;;;;;5005909;28;5051;-57
2023/02/16 15:36:18;;;;;;;;;;;;;;;;;;5004000;28;5018;-57
2023/02/16 15:38:57;;;;;;;;;;;;;;;;;;5003922;28;3349;-58
2023/02/16 15:41:28;;;;;;;;;;;;;;;;;;4999554;28;4842;-59
2023/02/16 15:43:54;;;;;;;;;;;;;;;;;;5009583;28;5079;-58
2023/02/16 15:46:29;;;;;;;;;;;;;;;;;;5006121;28;4568;-55
2023/02/16 15:48:55;;;;;;;;;;;;;;;;;;4997584;28;5493;-58
2023/02/16 15:51:20;;;;;;;;;;;;;;;;;;4991480;28;4669;-57
2023/02/16 15:53:47;;;;;;;;;;;;;;;;;;5008941;28;957;-57
2023/02/16 15:56:26;;;;;;;;;;;;;;;;;;4989975;28;4799;-58
2023/02/16 15:58:52;;;;;;;;;;;;;;;;;;5004141;28;5035;-55
2023/02/16 16:01:21;;;;;;;;;;;;;;;;;;5003680;28;5597;-57
2023/02/16 16:03:46;;;;;;;;;;;;;;;;;;4994568;28;4522;-58
2023/02/16 16:06:12;;;;;;;;;;;;;;;;;;5004522;28;4697;-58
2023/02/16 16:08:37;;;;;;;;;;;;;;;;;;5007857;28;1213;-59
2023/02/16 16:11:02;;;;;;;;;;;;;;;;;;5007831;28;4932;-58
2023/02/16 16:13:28;;;;;;;;;;;;;;;;;;5002216;28;5632;-58
2023/02/16 16:15:58;;;;;;;;;;;;;;;;;;5002984;28;4500;-58
2023/02/16 16:18:37;;;;;;;;;;;;;;;;;;5001459;28;5468;-58
2023/02/16 16:21:03;;;;;;;;;;;;;;;;;;4987030;28;5302;-59
2023/02/16 16:23:28;;;;;;;;;;;;;;;;;;5004080;28;3651;-57
2023/02/16 16:25:54;;;;;;;;;;;;;;;;;;5005368;28;4570;-62
2023/02/16 16:28:26;;;;;;;;;;;;;;;;;;5004637;28;5651;-59
2023/02/16 16:31:06;;;;;;;;;;;;;;;;;;5006380;28;5055;-57
2023/02/16 16:33:51;;;;;;;;;;;;;;;;;;5000901;28;5216;-67
2023/02/16 16:36:16;;;;;;;;;;;;;;;;;;4996901;28;4669;-65
2023/02/16 16:38:41;;;;;;;;;;;;;;;;;;5010037;28;3131;-60
2023/02/16 16:41:09;;;;;;;;;;;;;;;;;;4992104;28;5166;-60
2023/02/16 16:43:35;;;;;;;;;;;;;;;;;;4987930;28;4989;-61
2023/02/16 16:46:07;;;;;;;;;;;;;;;;;;5010924;28;5165;-59
2023/02/16 16:48:36;;;;;;;;;;;;;;;;;;5017063;28;4431;-56
2023/02/16 16:51:11;;;;;;;;;;;;;;;;;;4988666;28;4569;-59
2023/02/16 16:53:41;;;;;;;;;;;;;;;;;;5010846;28;3300;-62
2023/02/16 16:56:10;;;;;;;;;;;;;;;;;;4993165;28;5256;-60
2023/02/16 16:58:35;;;;;;;;;;;;;;;;;;5004874;28;5195;-59
2023/02/16 17:01:01;;;;;;;;;;;;;;;;;;4995126;28;5133;-58
2023/02/16 17:03:26;;;;;;;;;;;;;;;;;;5020596;28;5154;-58
2023/02/16 17:05:51;;;;;;;;;;;;;;;;;;5010508;28;4774;-58
2023/02/16 17:08:17;;;;;;;;;;;;;;;;;;5009838;28;3034;-60
2023/02/16 17:10:42;;;;;;;;;;;;;;;;;;5003226;28;4930;-62
2023/02/16 17:13:11;;;;;;;;;;;;;;;;;;5000065;28;4580;-57
2023/02/16 17:15:57;;;;;;;;;;;;;;;;;;5006813;28;5088;-62
2023/02/16 17:18:22;;;;;;;;;;;;;;;;;;5001278;28;5177;-61
2023/02/16 17:20:47;;;;;;;;;;;;;;;;;;5006347;28;5229;-62
2023/02/16 17:23:13;;;;;;;;;;;;;;;;;;5008231;28;1242;-60
2023/02/16 17:25:39;;;;;;;;;;;;;;;;;;5011250;28;5030;-61
2023/02/16 17:28:04;;;;;;;;;;;;;;;;;;5015024;28;5224;-62
2023/02/16 17:30:30;;;;;;;;;;;;;;;;;;5002796;28;5266;-57
2023/02/16 17:32:55;;;;;;;;;;;;;;;;;;5003970;28;4473;-61
2023/02/16 17:35:20;;;;;;;;;;;;;;;;;;5014285;28;1266;-62
2023/02/16 17:37:45;;;;;;;;;;;;;;;;;;5001803;28;4636;-61
2023/02/16 17:40:16;;;;;;;;;;;;;;;;;;5007260;28;5011;-59
2023/02/16 17:42:41;;;;;;;;;;;;;;;;;;5007596;28;4910;-62
2023/02/16 17:45:07;;;;;;;;;;;;;;;;;;4991281;28;5033;-58
2023/02/16 17:47:32;;;;;;;;;;;;;;;;;;5013633;28;3023;-62
2023/02/16 17:49:57;;;;;;;;;;;;;;;;;;5007555;28;5030;-61
2023/02/16 17:52:24;;;;;;;;;;;;;;;;;;5008100;28;4673;-62
2023/02/16 17:54:49;;;;;;;;;;;;;;;;;;4989813;28;5122;-60
2023/02/16 17:57:14;;;;;;;;;;;;;;;;;;5011377;28;5024;-61